Time;durP1;ratioP1;P1;durP2;ratioP2;P2;SDS_P1;SDS_P2;PMS_P1;PMS_P2;Temp;Humidity;BMP_temperature;BMP_pressure;BME280_temperature;BME280_humidity;BME280_pressure;Samples;Min_cycle;Max_cycle;Signal;HPM_P1;HPM_P2
2021/06/22 00:01:56;;;;;;;9.65;1.63;;;;;;;;;;5009656;28;20100;-59
2021/06/22 00:04:23;;;;;;;11.88;1.67;;;;;;;;;;5008373;28;20457;-60
2021/06/22 00:06:50;;;;;;;19.20;2.75;;;;;;;;;;5007096;28;20046;-60
2021/06/22 00:09:16;;;;;;;10.98;2.45;;;;;;;;;;5010399;28;20125;-59
2021/06/22 00:11:43;;;;;;;12.20;1.73;;;;;;;;;;5006375;28;20045;-60
2021/06/22 00:14:10;;;;;;;17.02;2.28;;;;;;;;;;5009642;28;20030;-60
2021/06/22 00:16:37;;;;;;;14.60;2.00;;;;;;;;;;5009282;28;20076;-58
2021/06/22 00:19:04;;;;;;;26.08;2.85;;;;;;;;;;5006002;28;20064;-60
2021/06/22 00:21:31;;;;;;;17.40;2.83;;;;;;;;;;5009605;28;20069;-59
2021/06/22 00:23:57;;;;;;;18.20;1.98;;;;;;;;;;5006726;28;20044;-60
2021/06/22 00:26:24;;;;;;;14.05;2.55;;;;;;;;;;5010929;28;20034;-60
2021/06/22 00:28:51;;;;;;;8.65;1.77;;;;;;;;;;5011297;28;20046;-59
2021/06/22 00:31:18;;;;;;;16.27;1.77;;;;;;;;;;5012159;28;20121;-59
2021/06/22 00:33:45;;;;;;;16.63;2.50;;;;;;;;;;5012691;28;20125;-60
2021/06/22 00:36:12;;;;;;;16.48;1.70;;;;;;;;;;5011468;28;20565;-60
2021/06/22 00:38:39;;;;;;;17.65;1.63;;;;;;;;;;5012683;28;20141;-58
2021/06/22 00:41:06;;;;;;;15.98;1.88;;;;;;;;;;5013266;28;20065;-59
2021/06/22 00:43:36;;;;;;;16.60;3.20;;;;;;;;;;5012970;28;20062;-59
2021/06/22 00:46:03;;;;;;;12.40;1.42;;;;;;;;;;5012934;28;20038;-60
2021/06/22 00:48:29;;;;;;;12.45;2.15;;;;;;;;;;5011185;28;20092;-59
2021/06/22 00:50:56;;;;;;;17.63;2.83;;;;;;;;;;5009750;28;20434;-59
2021/06/22 00:53:23;;;;;;;10.35;2.70;;;;;;;;;;5013825;28;20044;-59
2021/06/22 00:55:53;;;;;;;9.25;1.80;;;;;;;;;;5011029;28;20050;-60
2021/06/22 00:58:22;;;;;;;20.23;3.53;;;;;;;;;;5012478;28;20060;-59
2021/06/22 01:00:49;;;;;;;21.70;2.30;;;;;;;;;;5011128;28;20038;-59
2021/06/22 01:03:15;;;;;;;11.25;2.03;;;;;;;;;;5010926;28;20100;-59
2021/06/22 01:05:42;;;;;;;18.60;2.60;;;;;;;;;;5013746;28;20030;-60
2021/06/22 01:08:11;;;;;;;14.35;1.52;;;;;;;;;;5010877;28;20041;-59
2021/06/22 01:10:37;;;;;;;8.63;2.45;;;;;;;;;;5012460;28;20077;-59
2021/06/22 01:13:04;;;;;;;14.52;1.92;;;;;;;;;;5010786;28;20474;-60
2021/06/22 01:15:31;;;;;;;4.53;1.88;;;;;;;;;;5011919;28;20041;-58
2021/06/22 01:17:59;;;;;;;8.15;2.22;;;;;;;;;;5012494;28;20099;-60
2021/06/22 01:20:30;;;;;;;9.65;2.15;;;;;;;;;;5008204;28;20034;-60
2021/06/22 01:23:00;;;;;;;9.13;1.80;;;;;;;;;;5016348;28;20041;-59
2021/06/22 01:25:28;;;;;;;6.68;1.77;;;;;;;;;;5012292;28;20034;-60
2021/06/22 01:27:55;;;;;;;11.95;2.20;;;;;;;;;;5010574;28;20041;-60
2021/06/22 01:30:23;;;;;;;6.80;1.58;;;;;;;;;;5011227;28;20116;-57
2021/06/22 01:32:50;;;;;;;11.85;2.08;;;;;;;;;;5009981;28;20605;-60
2021/06/22 01:35:17;;;;;;;5.32;1.92;;;;;;;;;;5008609;28;20090;-59
2021/06/22 01:37:51;;;;;;;9.75;2.25;;;;;;;;;;5012418;28;20030;-59
2021/06/22 01:40:18;;;;;;;9.45;2.30;;;;;;;;;;5010433;28;20088;-60
2021/06/22 01:42:45;;;;;;;5.47;1.55;;;;;;;;;;5011430;28;20066;-60
2021/06/22 01:45:12;;;;;;;17.13;2.20;;;;;;;;;;5007809;28;20045;-59
2021/06/22 01:47:40;;;;;;;9.50;2.45;;;;;;;;;;5008301;28;20038;-58
2021/06/22 01:50:07;;;;;;;9.57;1.13;;;;;;;;;;5012212;28;20494;-60
2021/06/22 01:52:34;;;;;;;15.95;1.83;;;;;;;;;;5010855;28;20046;-60
2021/06/22 01:55:34;;;;;;;7.13;1.30;;;;;;;;;;5011176;28;20685;-60
2021/06/22 01:57:49;;;;;;;15.23;1.95;;;;;;;;;;5012014;28;20048;-60
2021/06/22 02:00:16;;;;;;;9.90;2.13;;;;;;;;;;5009179;28;20053;-59
2021/06/22 02:02:43;;;;;;;5.75;1.88;;;;;;;;;;5012763;28;20069;-60
2021/06/22 02:05:11;;;;;;;13.65;2.83;;;;;;;;;;5010712;28;20052;-59
2021/06/22 02:07:38;;;;;;;12.32;2.20;;;;;;;;;;5010156;28;20138;-60
2021/06/22 02:10:05;;;;;;;13.10;2.75;;;;;;;;;;5020563;28;20045;-60
2021/06/22 02:12:31;;;;;;;13.40;2.15;;;;;;;;;;5004942;28;20073;-60
2021/06/22 02:14:58;;;;;;;7.72;1.83;;;;;;;;;;5014411;28;20471;-60
2021/06/22 02:17:25;;;;;;;10.43;2.13;;;;;;;;;;5007896;28;20442;-60
2021/06/22 02:19:52;;;;;;;18.95;2.70;;;;;;;;;;5009832;28;20080;-59
2021/06/22 02:22:19;;;;;;;16.75;2.83;;;;;;;;;;5012099;28;20034;-60
2021/06/22 02:24:46;;;;;;;8.68;1.95;;;;;;;;;;5008668;28;20038;-60
2021/06/22 02:27:29;;;;;;;12.25;1.73;;;;;;;;;;5011502;28;20070;-56
2021/06/22 02:29:56;;;;;;;11.70;2.55;;;;;;;;;;5011013;28;20054;-60
2021/06/22 02:32:23;;;;;;;18.17;2.15;;;;;;;;;;4998607;28;20074;-60
2021/06/22 02:34:50;;;;;;;15.77;2.55;;;;;;;;;;5011319;28;20042;-59
2021/06/22 02:37:17;;;;;;;12.13;2.15;;;;;;;;;;5009073;28;20398;-60
2021/06/22 02:39:45;;;;;;;8.38;1.90;;;;;;;;;;5007934;28;20110;-61
2021/06/22 02:42:12;;;;;;;10.65;2.15;;;;;;;;;;5010862;28;20073;-61
2021/06/22 02:44:39;;;;;;;5.50;1.27;;;;;;;;;;5005440;28;20453;-60
2021/06/22 02:47:06;;;;;;;10.43;2.75;;;;;;;;;;5011597;28;20045;-59
2021/06/22 02:49:33;;;;;;;7.97;2.47;;;;;;;;;;5009404;28;20053;-58
2021/06/22 02:52:00;;;;;;;8.98;2.00;;;;;;;;;;5008484;28;20081;-60
2021/06/22 02:54:26;;;;;;;11.82;2.55;;;;;;;;;;5011808;28;20115;-60
2021/06/22 02:56:53;;;;;;;7.80;1.70;;;;;;;;;;5009170;28;20107;-60
2021/06/22 02:59:20;;;;;;;6.97;2.22;;;;;;;;;;5009945;28;20053;-60
2021/06/22 03:01:47;;;;;;;10.43;1.85;;;;;;;;;;5008366;28;20557;-61
2021/06/22 03:04:13;;;;;;;14.30;2.58;;;;;;;;;;5009275;28;20038;-60
2021/06/22 03:06:40;;;;;;;8.40;2.75;;;;;;;;;;5011338;28;20653;-60
2021/06/22 03:09:07;;;;;;;6.10;2.22;;;;;;;;;;5008408;28;20042;-60
2021/06/22 03:11:34;;;;;;;9.90;1.65;;;;;;;;;;5010194;28;20537;-61
2021/06/22 03:14:00;;;;;;;16.13;2.20;;;;;;;;;;5008698;28;20112;-60
2021/06/22 03:16:27;;;;;;;10.63;1.60;;;;;;;;;;5007313;28;20525;-59
2021/06/22 03:18:54;;;;;;;15.07;2.25;;;;;;;;;;5010164;28;20041;-60
2021/06/22 03:21:21;;;;;;;12.50;1.83;;;;;;;;;;5008267;28;20120;-60
2021/06/22 03:23:49;;;;;;;9.13;1.52;;;;;;;;;;5010137;28;20034;-57
2021/06/22 03:26:16;;;;;;;7.70;1.83;;;;;;;;;;5008679;28;20061;-61
2021/06/22 03:28:42;;;;;;;10.45;2.20;;;;;;;;;;5009659;28;20117;-60
2021/06/22 03:31:10;;;;;;;10.63;1.58;;;;;;;;;;5009899;28;20084;-59
2021/06/22 03:33:36;;;;;;;7.90;2.53;;;;;;;;;;5009231;28;20106;-57
2021/06/22 03:36:04;;;;;;;7.20;1.30;;;;;;;;;;5009012;28;20092;-61
2021/06/22 03:38:31;;;;;;;6.88;1.67;;;;;;;;;;5009654;28;20060;-61
2021/06/22 03:40:58;;;;;;;13.18;2.75;;;;;;;;;;5008182;28;20077;-60
2021/06/22 03:43:26;;;;;;;5.20;1.67;;;;;;;;;;5010920;28;20128;-61
2021/06/22 03:45:52;;;;;;;9.95;1.48;;;;;;;;;;5008064;28;20053;-61
2021/06/22 03:48:20;;;;;;;9.93;1.92;;;;;;;;;;5008441;28;20048;-60
2021/06/22 03:50:47;;;;;;;12.65;1.77;;;;;;;;;;5010775;28;20042;-60
2021/06/22 03:53:14;;;;;;;7.07;2.25;;;;;;;;;;5008295;28;20042;-59
2021/06/22 03:55:40;;;;;;;11.05;2.35;;;;;;;;;;5009639;28;20069;-61
2021/06/22 03:58:07;;;;;;;11.07;3.05;;;;;;;;;;5007754;28;20445;-61
2021/06/22 04:00:34;;;;;;;11.70;2.40;;;;;;;;;;5007937;28;20442;-61
2021/06/22 04:03:01;;;;;;;8.23;1.73;;;;;;;;;;5010582;28;20050;-61
2021/06/22 04:05:28;;;;;;;8.70;2.83;;;;;;;;;;5009075;28;20732;-60
2021/06/22 04:07:56;;;;;;;10.25;2.78;;;;;;;;;;5009750;28;20046;-60
2021/06/22 04:10:23;;;;;;;10.90;1.92;;;;;;;;;;5008617;28;20081;-60
2021/06/22 04:12:49;;;;;;;13.48;4.15;;;;;;;;;;5005678;28;20553;-60
2021/06/22 04:15:17;;;;;;;10.10;1.85;;;;;;;;;;5010448;28;20382;-61
2021/06/22 04:17:44;;;;;;;11.88;2.80;;;;;;;;;;5008848;28;20782;-60
2021/06/22 04:20:11;;;;;;;13.35;2.83;;;;;;;;;;5008102;28;20100;-61
2021/06/22 04:22:38;;;;;;;9.50;2.58;;;;;;;;;;5008003;28;20097;-60
2021/06/22 04:25:05;;;;;;;13.98;2.60;;;;;;;;;;5007120;28;20469;-60
2021/06/22 04:27:32;;;;;;;10.98;3.38;;;;;;;;;;5009880;28;20026;-62
2021/06/22 04:29:59;;;;;;;13.07;2.33;;;;;;;;;;5007886;28;20049;-59
2021/06/22 04:32:26;;;;;;;6.25;2.35;;;;;;;;;;5008147;28;20092;-61
2021/06/22 04:34:52;;;;;;;7.30;1.67;;;;;;;;;;5008028;28;20386;-61
2021/06/22 04:37:19;;;;;;;8.95;1.95;;;;;;;;;;5007257;28;20116;-61
2021/06/22 04:39:46;;;;;;;8.68;2.03;;;;;;;;;;5010719;28;20128;-61
2021/06/22 04:42:13;;;;;;;10.45;2.35;;;;;;;;;;5005609;28;20065;-61
2021/06/22 04:44:40;;;;;;;8.65;2.10;;;;;;;;;;4998249;28;20046;-61
2021/06/22 04:47:07;;;;;;;12.13;2.40;;;;;;;;;;5010745;28;20073;-61
2021/06/22 04:49:33;;;;;;;6.55;2.20;;;;;;;;;;5008166;28;20561;-61
2021/06/22 04:52:00;;;;;;;7.00;1.70;;;;;;;;;;5009239;28;20046;-61
2021/06/22 04:54:27;;;;;;;6.53;1.95;;;;;;;;;;5005485;28;20053;-61
2021/06/22 04:56:54;;;;;;;8.85;1.85;;;;;;;;;;5005580;28;20427;-60
2021/06/22 04:59:21;;;;;;;7.25;1.83;;;;;;;;;;5009104;28;20461;-62
2021/06/22 05:01:47;;;;;;;4.65;1.33;;;;;;;;;;5008929;28;20456;-61
2021/06/22 05:04:14;;;;;;;14.88;2.63;;;;;;;;;;4995032;28;20057;-60
2021/06/22 05:06:41;;;;;;;4.95;1.33;;;;;;;;;;5003855;28;20100;-60
2021/06/22 05:09:08;;;;;;;16.15;2.95;;;;;;;;;;5007005;28;20054;-62
2021/06/22 05:11:34;;;;;;;7.57;1.55;;;;;;;;;;5012716;28;20133;-61
2021/06/22 05:14:01;;;;;;;24.35;4.07;;;;;;;;;;5005144;28;20104;-61
2021/06/22 05:16:28;;;;;;;12.02;3.00;;;;;;;;;;5013666;28;20101;-61
2021/06/22 05:18:55;;;;;;;11.85;1.95;;;;;;;;;;5010868;28;20472;-61
2021/06/22 05:21:22;;;;;;;10.13;2.30;;;;;;;;;;5010838;28;20093;-62
2021/06/22 05:23:48;;;;;;;13.52;2.70;;;;;;;;;;5012783;28;20522;-62
2021/06/22 05:26:15;;;;;;;11.80;3.70;;;;;;;;;;5009430;28;20049;-62
2021/06/22 05:28:42;;;;;;;9.85;2.35;;;;;;;;;;5012978;28;20038;-63
2021/06/22 05:31:09;;;;;;;15.55;4.22;;;;;;;;;;5009737;28;20073;-62
2021/06/22 05:33:35;;;;;;;10.07;2.38;;;;;;;;;;4999905;28;20117;-62
2021/06/22 05:36:02;;;;;;;9.02;2.38;;;;;;;;;;5013641;28;20054;-61
2021/06/22 05:38:29;;;;;;;11.40;2.10;;;;;;;;;;5008684;28;20455;-62
2021/06/22 05:40:56;;;;;;;8.43;2.08;;;;;;;;;;5010150;28;20096;-62
2021/06/22 05:43:23;;;;;;;16.77;3.20;;;;;;;;;;5011060;28;20449;-61
2021/06/22 05:45:49;;;;;;;10.60;2.08;;;;;;;;;;5010368;28;20041;-61
2021/06/22 05:48:16;;;;;;;12.70;3.05;;;;;;;;;;5013070;28;20088;-62
2021/06/22 05:50:43;;;;;;;9.77;1.92;;;;;;;;;;5008696;28;20100;-62
2021/06/22 05:53:10;;;;;;;7.50;1.73;;;;;;;;;;5011379;28;20042;-62
2021/06/22 05:55:36;;;;;;;14.10;2.42;;;;;;;;;;5016679;28;20133;-62
2021/06/22 05:58:03;;;;;;;12.20;2.25;;;;;;;;;;5017724;28;20038;-61
2021/06/22 06:00:32;;;;;;;7.95;2.15;;;;;;;;;;5012698;28;20038;-62
2021/06/22 06:02:58;;;;;;;12.40;2.85;;;;;;;;;;5010067;28;20134;-62
2021/06/22 06:05:25;;;;;;;13.60;2.13;;;;;;;;;;5010626;28;20437;-61
2021/06/22 06:07:53;;;;;;;13.38;1.95;;;;;;;;;;5011184;28;20045;-61
2021/06/22 06:10:21;;;;;;;9.48;2.30;;;;;;;;;;5008200;28;20029;-62
2021/06/22 06:12:48;;;;;;;10.85;2.70;;;;;;;;;;5012812;28;20034;-61
2021/06/22 06:15:15;;;;;;;11.35;3.38;;;;;;;;;;5009697;28;20200;-62
2021/06/22 06:17:42;;;;;;;13.43;2.50;;;;;;;;;;5009040;28;20062;-61
2021/06/22 06:20:10;;;;;;;7.57;2.33;;;;;;;;;;5010358;28;20046;-61
2021/06/22 06:22:37;;;;;;;16.15;1.95;;;;;;;;;;5008948;28;20121;-61
2021/06/22 06:25:04;;;;;;;13.10;2.53;;;;;;;;;;5011645;28;20057;-61
2021/06/22 06:30:20;;;;;;;12.43;2.42;;;;;;;;;;5011309;28;20041;-61
2021/06/22 06:32:47;;;;;;;7.90;2.00;;;;;;;;;;5010442;28;20041;-62
2021/06/22 06:35:14;;;;;;;11.90;2.03;;;;;;;;;;5010313;28;20702;-61
2021/06/22 06:37:41;;;;;;;13.38;2.05;;;;;;;;;;5008127;28;20038;-57
2021/06/22 06:40:09;;;;;;;11.00;2.20;;;;;;;;;;5010231;28;20502;-57
2021/06/22 06:42:39;;;;;;;9.32;1.77;;;;;;;;;;5008617;28;20121;-61
2021/06/22 06:45:07;;;;;;;12.23;2.20;;;;;;;;;;5010098;28;20046;-61
2021/06/22 06:47:34;;;;;;;13.65;2.33;;;;;;;;;;5009086;28;20497;-62
2021/06/22 06:50:02;;;;;;;11.95;1.95;;;;;;;;;;5007221;28;20045;-61
2021/06/22 06:52:29;;;;;;;10.68;2.30;;;;;;;;;;5011924;28;20045;-61
2021/06/22 06:54:56;;;;;;;12.20;1.88;;;;;;;;;;5008910;28;20069;-60
2021/06/22 06:57:22;;;;;;;11.93;1.55;;;;;;;;;;5009823;28;20080;-61
2021/06/22 06:59:49;;;;;;;13.68;2.42;;;;;;;;;;5008449;28;20112;-61
2021/06/22 07:02:16;;;;;;;14.90;1.75;;;;;;;;;;5008064;28;20073;-61
2021/06/22 07:04:43;;;;;;;13.02;2.05;;;;;;;;;;5011325;28;20069;-56
2021/06/22 07:07:10;;;;;;;16.02;1.55;;;;;;;;;;5008802;28;20038;-61
2021/06/22 07:09:36;;;;;;;12.73;1.38;;;;;;;;;;5010175;28;20069;-62
2021/06/22 07:12:03;;;;;;;13.50;2.05;;;;;;;;;;5008905;28;20395;-61
2021/06/22 07:14:30;;;;;;;8.38;1.30;;;;;;;;;;5008411;28;20045;-62
2021/06/22 07:16:57;;;;;;;12.95;2.17;;;;;;;;;;5010797;28;20100;-61
2021/06/22 07:19:24;;;;;;;9.13;1.20;;;;;;;;;;5008573;28;20117;-60
2021/06/22 07:21:50;;;;;;;15.05;1.55;;;;;;;;;;4992831;28;20471;-62
2021/06/22 07:24:17;;;;;;;11.77;1.67;;;;;;;;;;5009015;28;20065;-62
2021/06/22 07:26:44;;;;;;;18.52;1.23;;;;;;;;;;5008374;28;20045;-62
2021/06/22 07:29:11;;;;;;;11.70;1.13;;;;;;;;;;5011395;28;20498;-62
2021/06/22 07:31:37;;;;;;;11.57;1.20;;;;;;;;;;5008414;28;20073;-60
2021/06/22 07:34:04;;;;;;;13.02;1.55;;;;;;;;;;5007601;28;20057;-62
2021/06/22 07:36:31;;;;;;;12.23;1.85;;;;;;;;;;5009712;28;20046;-61
2021/06/22 07:38:58;;;;;;;10.90;1.80;;;;;;;;;;5008020;28;20114;-63
2021/06/22 07:41:25;;;;;;;5.80;1.33;;;;;;;;;;5011260;28;20467;-61
2021/06/22 07:43:51;;;;;;;18.27;1.90;;;;;;;;;;5008849;28;20129;-61
2021/06/22 07:46:18;;;;;;;5.65;1.10;;;;;;;;;;5000981;28;20088;-62
2021/06/22 07:48:45;;;;;;;6.72;1.00;;;;;;;;;;5010816;28;20676;-62
2021/06/22 07:51:12;;;;;;;10.98;1.25;;;;;;;;;;5008381;28;20041;-61
2021/06/22 07:53:39;;;;;;;7.90;1.42;;;;;;;;;;5010016;28;20502;-62
2021/06/22 07:56:05;;;;;;;7.78;1.42;;;;;;;;;;5006512;28;20029;-62
2021/06/22 07:58:32;;;;;;;8.13;1.33;;;;;;;;;;5007772;28;20543;-62
2021/06/22 08:00:59;;;;;;;18.65;1.70;;;;;;;;;;5009197;28;20073;-62
2021/06/22 08:03:27;;;;;;;10.95;1.10;;;;;;;;;;4999008;28;20042;-59
2021/06/22 08:05:54;;;;;;;11.57;1.25;;;;;;;;;;5009735;28;20049;-62
2021/06/22 08:08:22;;;;;;;12.13;1.67;;;;;;;;;;5007319;28;20065;-62
2021/06/22 08:10:51;;;;;;;9.35;1.10;;;;;;;;;;5007018;28;20034;-62
2021/06/22 08:13:18;;;;;;;11.70;1.20;;;;;;;;;;5009698;28;20057;-63
2021/06/22 08:15:44;;;;;;;7.15;1.00;;;;;;;;;;5006397;28;20145;-62
2021/06/22 08:18:11;;;;;;;12.23;1.30;;;;;;;;;;5009678;28;20065;-61
2021/06/22 08:20:39;;;;;;;7.53;1.30;;;;;;;;;;5007000;28;20042;-63
2021/06/22 08:23:06;;;;;;;5.13;1.20;;;;;;;;;;5008407;28;20034;-63
2021/06/22 08:25:33;;;;;;;7.32;1.02;;;;;;;;;;5009655;28;20042;-63
2021/06/22 08:28:00;;;;;;;6.85;1.35;;;;;;;;;;5007924;28;20042;-63
2021/06/22 08:30:26;;;;;;;6.97;0.90;;;;;;;;;;5009129;28;20486;-60
2021/06/22 08:32:54;;;;;;;18.08;1.55;;;;;;;;;;5008555;28;20128;-61
2021/06/22 08:35:21;;;;;;;9.18;1.23;;;;;;;;;;5004634;28;20097;-62
2021/06/22 08:37:48;;;;;;;6.07;1.83;;;;;;;;;;5009887;28;20065;-62
2021/06/22 08:40:15;;;;;;;9.65;0.93;;;;;;;;;;5008730;28;20061;-62
2021/06/22 08:42:42;;;;;;;6.00;1.60;;;;;;;;;;5007639;28;20046;-62
2021/06/22 08:45:11;;;;;;;13.02;2.03;;;;;;;;;;5011202;28;20500;-62
2021/06/22 08:47:38;;;;;;;6.65;1.10;;;;;;;;;;5011665;28;20441;-62
2021/06/22 08:50:05;;;;;;;7.93;1.02;;;;;;;;;;5014237;28;20410;-61
2021/06/22 08:52:35;;;;;;;10.68;0.98;;;;;;;;;;5011998;28;20044;-62
2021/06/22 08:55:03;;;;;;;6.25;0.88;;;;;;;;;;5027287;28;20046;-62
2021/06/22 08:57:30;;;;;;;8.27;1.25;;;;;;;;;;5012743;28;20125;-60
2021/06/22 08:59:57;;;;;;;12.10;1.20;;;;;;;;;;5010509;28;20054;-60
2021/06/22 09:02:29;;;;;;;9.65;0.80;;;;;;;;;;5012016;28;20383;-59
2021/06/22 09:04:58;;;;;;;10.88;0.93;;;;;;;;;;5009814;28;20054;-60
2021/06/22 09:07:41;;;;;;;8.10;0.90;;;;;;;;;;5010266;28;20457;-60
2021/06/22 09:10:08;;;;;;;15.25;0.95;;;;;;;;;;5013382;28;20037;-60
2021/06/22 09:12:35;;;;;;;12.15;1.52;;;;;;;;;;5011873;28;20072;-60
2021/06/22 09:15:14;;;;;;;12.75;1.20;;;;;;;;;;5010544;28;20104;-59
2021/06/22 09:17:42;;;;;;;7.95;1.02;;;;;;;;;;5013562;28;20503;-60
2021/06/22 09:20:09;;;;;;;9.20;1.30;;;;;;;;;;5024808;28;20042;-59
2021/06/22 09:22:35;;;;;;;11.20;0.80;;;;;;;;;;5012764;28;20046;-60
2021/06/22 09:25:03;;;;;;;5.85;0.82;;;;;;;;;;5010359;28;20141;-60
2021/06/22 09:27:49;;;;;;;12.73;1.35;;;;;;;;;;5011121;28;20093;-61
2021/06/22 09:30:16;;;;;;;12.00;0.70;;;;;;;;;;5024892;28;20100;-60
2021/06/22 09:32:43;;;;;;;7.65;1.00;;;;;;;;;;5006968;28;20137;-60
2021/06/22 09:35:19;;;;;;;10.23;0.88;;;;;;;;;;5011190;28;20435;-59
2021/06/22 09:37:51;;;;;;;10.75;1.45;;;;;;;;;;5011903;28;20042;-60
2021/06/22 09:40:27;;;;;;;6.50;0.80;;;;;;;;;;5010518;28;20526;-58
2021/06/22 09:42:55;;;;;;;13.73;0.77;;;;;;;;;;5013285;28;20077;-61
2021/06/22 09:45:23;;;;;;;7.10;0.80;;;;;;;;;;5011595;28;20050;-60
2021/06/22 09:47:51;;;;;;;5.82;0.80;;;;;;;;;;5011888;28;20406;-59
2021/06/22 09:50:36;;;;;;;10.27;1.35;;;;;;;;;;5004584;28;20117;-58
2021/06/22 09:53:22;;;;;;;9.48;1.00;;;;;;;;;;5009036;28;20052;-60
2021/06/22 09:55:49;;;;;;;13.15;1.42;;;;;;;;;;5009906;28;20054;-61
2021/06/22 09:58:16;;;;;;;16.38;1.65;;;;;;;;;;5012146;28;20042;-60
2021/06/22 10:00:43;;;;;;;12.05;0.90;;;;;;;;;;5006494;28;20124;-60
2021/06/22 10:03:10;;;;;;;17.17;1.80;;;;;;;;;;5010636;28;20037;-58
2021/06/22 10:05:49;;;;;;;8.02;0.75;;;;;;;;;;5009440;28;20096;-59
2021/06/22 10:08:16;;;;;;;11.48;1.05;;;;;;;;;;5006636;28;20081;-59
2021/06/22 10:10:43;;;;;;;11.27;0.90;;;;;;;;;;5011762;28;20553;-60
2021/06/22 10:13:30;;;;;;;8.98;1.20;;;;;;;;;;5013108;28;20076;-60
2021/06/22 10:16:15;;;;;;;6.88;0.80;;;;;;;;;;5010742;28;20560;-59
2021/06/22 10:18:42;;;;;;;9.05;0.80;;;;;;;;;;5008869;28;20100;-60
2021/06/22 10:21:09;;;;;;;9.18;0.82;;;;;;;;;;5008859;28;20045;-59
2021/06/22 10:23:35;;;;;;;7.53;0.75;;;;;;;;;;5009432;28;20104;-58
2021/06/22 10:26:02;;;;;;;12.57;1.13;;;;;;;;;;5009633;28;20041;-60
2021/06/22 10:28:29;;;;;;;9.82;0.70;;;;;;;;;;5008706;28;20494;-60
2021/06/22 10:30:56;;;;;;;8.15;1.10;;;;;;;;;;5011618;28;20042;-60
2021/06/22 10:33:23;;;;;;;10.70;1.27;;;;;;;;;;5008542;28;20052;-60
2021/06/22 10:35:50;;;;;;;12.70;1.45;;;;;;;;;;5011837;28;20048;-60
2021/06/22 10:38:19;;;;;;;17.52;0.95;;;;;;;;;;5006938;28;20085;-60
2021/06/22 10:40:51;;;;;;;15.02;1.55;;;;;;;;;;5005880;28;20422;-60
2021/06/22 10:43:32;;;;;;;9.80;1.10;;;;;;;;;;5013235;28;20037;-61
2021/06/22 10:46:02;;;;;;;12.45;1.20;;;;;;;;;;5004846;28;20324;-59
2021/06/22 10:48:39;;;;;;;6.35;0.70;;;;;;;;;;5005863;28;20092;-60
2021/06/22 10:51:25;;;;;;;11.32;0.88;;;;;;;;;;5004565;28;20095;-60
2021/06/22 10:53:52;;;;;;;14.73;1.05;;;;;;;;;;5008238;28;20053;-59
2021/06/22 10:56:20;;;;;;;13.57;1.08;;;;;;;;;;5010645;28;20129;-59
2021/06/22 10:59:05;;;;;;;11.73;1.48;;;;;;;;;;5009129;28;20080;-59
2021/06/22 11:01:53;;;;;;;12.90;1.08;;;;;;;;;;5008912;28;20092;-60
2021/06/22 11:04:21;;;;;;;7.30;0.85;;;;;;;;;;5001380;28;20069;-60
2021/06/22 11:07:01;;;;;;;12.38;0.85;;;;;;;;;;5009206;28;20421;-60
2021/06/22 11:09:28;;;;;;;7.40;0.80;;;;;;;;;;5006120;28;20030;-60
2021/06/22 11:12:13;;;;;;;12.68;1.08;;;;;;;;;;4998675;28;20108;-61
2021/06/22 11:14:59;;;;;;;14.85;1.30;;;;;;;;;;5007682;28;20041;-59
2021/06/22 11:17:55;;;;;;;10.52;0.90;;;;;;;;;;5008844;28;20038;-60
2021/06/22 11:20:22;;;;;;;5.70;0.70;;;;;;;;;;4945214;28;20063;-60
2021/06/22 11:23:00;;;;;;;9.70;0.90;;;;;;;;;;4936580;29;20048;-58
2021/06/22 11:25:47;;;;;;;16.77;1.10;;;;;;;;;;4938497;29;20059;-60
2021/06/22 11:28:14;;;;;;;16.95;0.70;;;;;;;;;;4931965;29;20110;-59
2021/06/22 11:31:01;;;;;;;9.95;1.05;;;;;;;;;;4939609;29;20143;-60
2021/06/22 11:33:28;;;;;;;11.02;1.25;;;;;;;;;;4943832;29;20373;-60
2021/06/22 11:36:13;;;;;;;10.95;0.93;;;;;;;;;;4932356;29;20067;-59
2021/06/22 11:38:40;;;;;;;9.55;0.82;;;;;;;;;;4937166;29;20520;-59
2021/06/22 11:41:13;;;;;;;10.65;1.02;;;;;;;;;;4939585;29;20122;-60
2021/06/22 11:43:58;;;;;;;6.28;0.73;;;;;;;;;;4932385;29;20059;-60
2021/06/22 11:46:31;;;;;;;15.75;1.88;;;;;;;;;;4939865;29;20099;-60
2021/06/22 11:48:58;;;;;;;8.13;1.05;;;;;;;;;;4949237;29;20051;-60
2021/06/22 11:51:44;;;;;;;15.00;1.13;;;;;;;;;;4934915;29;20079;-61
2021/06/22 11:54:11;;;;;;;10.63;0.70;;;;;;;;;;4933573;29;20058;-61
2021/06/22 11:56:37;;;;;;;5.22;0.70;;;;;;;;;;4964005;28;20117;-60
2021/06/22 11:59:05;;;;;;;15.50;0.88;;;;;;;;;;5007554;28;20129;-61
2021/06/22 12:01:32;;;;;;;10.60;1.10;;;;;;;;;;5003506;28;20046;-61
2021/06/22 12:04:00;;;;;;;21.02;1.63;;;;;;;;;;5009467;28;20045;-60
2021/06/22 12:06:27;;;;;;;7.20;0.70;;;;;;;;;;5006915;28;20104;-61
2021/06/22 12:08:54;;;;;;;8.77;1.33;;;;;;;;;;5009889;28;20038;-60
2021/06/22 12:11:30;;;;;;;9.20;1.67;;;;;;;;;;5002411;28;20046;-60
2021/06/22 12:13:57;;;;;;;8.68;1.25;;;;;;;;;;5001482;28;20482;-60
2021/06/22 12:16:25;;;;;;;11.88;1.15;;;;;;;;;;5006644;28;20145;-59
2021/06/22 12:18:53;;;;;;;9.93;1.13;;;;;;;;;;4999175;28;20135;-61
2021/06/22 12:21:21;;;;;;;13.45;0.88;;;;;;;;;;5008127;28;20045;-60
2021/06/22 12:23:48;;;;;;;7.90;0.75;;;;;;;;;;5008091;28;20029;-61
2021/06/22 12:26:16;;;;;;;11.63;1.10;;;;;;;;;;5004824;28;20060;-60
2021/06/22 12:28:43;;;;;;;8.02;1.05;;;;;;;;;;5010746;28;20041;-58
2021/06/22 12:31:11;;;;;;;11.43;0.80;;;;;;;;;;5007842;28;20070;-59
2021/06/22 12:33:39;;;;;;;6.03;0.70;;;;;;;;;;5017152;28;20037;-60
2021/06/22 12:36:11;;;;;;;4.90;0.70;;;;;;;;;;5008937;28;20056;-59
2021/06/22 12:38:41;;;;;;;9.75;1.13;;;;;;;;;;5004146;28;20077;-58
2021/06/22 12:41:09;;;;;;;9.30;0.90;;;;;;;;;;5005477;28;20092;-61
2021/06/22 12:43:40;;;;;;;6.72;0.60;;;;;;;;;;5002912;28;20810;-60
2021/06/22 12:46:06;;;;;;;8.93;0.75;;;;;;;;;;5011772;28;20092;-60
2021/06/22 12:48:34;;;;;;;8.13;0.77;;;;;;;;;;5009747;28;20040;-61
2021/06/22 12:51:01;;;;;;;9.00;0.88;;;;;;;;;;5010792;28;20038;-60
2021/06/22 12:53:31;;;;;;;10.60;0.60;;;;;;;;;;5008443;28;20069;-60
2021/06/22 12:56:08;;;;;;;6.82;0.88;;;;;;;;;;5012154;28;20143;-60
2021/06/22 12:58:44;;;;;;;9.75;1.00;;;;;;;;;;5008945;28;20050;-60
2021/06/22 13:01:29;;;;;;;5.97;0.80;;;;;;;;;;5012146;28;20041;-59
2021/06/22 13:03:56;;;;;;;8.77;0.60;;;;;;;;;;5005462;28;20057;-56
2021/06/22 13:06:24;;;;;;;7.00;0.80;;;;;;;;;;5009695;28;20081;-59
2021/06/22 13:08:56;;;;;;;3.60;0.80;;;;;;;;;;5009223;28;20041;-60
2021/06/22 13:11:27;;;;;;;10.98;0.68;;;;;;;;;;5007751;28;20049;-60
2021/06/22 13:14:13;;;;;;;3.78;0.70;;;;;;;;;;5008903;28;20077;-60
2021/06/22 13:16:41;;;;;;;7.63;0.80;;;;;;;;;;5002148;28;20076;-59
2021/06/22 13:19:08;;;;;;;8.73;0.60;;;;;;;;;;5007148;28;20088;-59
2021/06/22 13:21:36;;;;;;;4.82;0.63;;;;;;;;;;5007613;28;20124;-59
2021/06/22 13:24:39;;;;;;;4.22;0.55;;;;;;;;;;5008445;28;20030;-58
2021/06/22 13:27:08;;;;;;;6.43;0.50;;;;;;;;;;5009794;28;20359;-60
2021/06/22 13:29:53;;;;;;;6.85;0.80;;;;;;;;;;5009508;28;20101;-60
2021/06/22 13:32:25;;;;;;;6.95;0.55;;;;;;;;;;5009601;28;20545;-59
2021/06/22 13:34:51;;;;;;;8.38;1.20;;;;;;;;;;5008862;28;20038;-59
2021/06/22 13:37:18;;;;;;;9.15;0.98;;;;;;;;;;5015745;28;20114;-60
2021/06/22 13:39:52;;;;;;;6.43;0.50;;;;;;;;;;5005967;28;20044;-59
2021/06/22 13:42:19;;;;;;;9.65;0.90;;;;;;;;;;5005246;28;20033;-60
2021/06/22 13:44:49;;;;;;;5.03;0.60;;;;;;;;;;5006288;28;20037;-60
2021/06/22 13:47:37;;;;;;;3.63;0.60;;;;;;;;;;5013429;28;20133;-59
2021/06/22 13:50:11;;;;;;;9.52;0.50;;;;;;;;;;5004305;28;20045;-60
2021/06/22 13:52:45;;;;;;;8.30;0.70;;;;;;;;;;5007043;28;20042;-59
2021/06/22 13:55:13;;;;;;;4.80;0.63;;;;;;;;;;5009371;28;20442;-59
2021/06/22 13:57:40;;;;;;;7.18;0.60;;;;;;;;;;5009110;28;20057;-59
2021/06/22 14:00:07;;;;;;;9.50;0.60;;;;;;;;;;5008996;28;20042;-59
2021/06/22 14:02:34;;;;;;;8.25;0.60;;;;;;;;;;5009881;28;20034;-60
2021/06/22 14:05:03;;;;;;;7.68;0.75;;;;;;;;;;5008933;28;20115;-59
2021/06/22 14:07:30;;;;;;;4.10;0.50;;;;;;;;;;5008049;28;20092;-59
2021/06/22 14:09:57;;;;;;;5.88;0.40;;;;;;;;;;5006487;28;20541;-60
2021/06/22 14:12:23;;;;;;;3.47;0.50;;;;;;;;;;5007702;28;20042;-60
2021/06/22 14:14:50;;;;;;;4.25;0.50;;;;;;;;;;5004800;28;20057;-59
2021/06/22 14:17:17;;;;;;;1.98;0.50;;;;;;;;;;5006926;28;20122;-59
2021/06/22 14:19:44;;;;;;;5.25;0.60;;;;;;;;;;5010859;28;20084;-59
2021/06/22 14:22:10;;;;;;;7.00;0.50;;;;;;;;;;5021846;28;20128;-59
2021/06/22 14:24:37;;;;;;;7.97;0.70;;;;;;;;;;5011050;28;20121;-60
2021/06/22 14:27:04;;;;;;;9.93;0.52;;;;;;;;;;5009778;28;20497;-59
2021/06/22 14:29:31;;;;;;;4.70;0.60;;;;;;;;;;5010367;28;20038;-59
2021/06/22 14:31:57;;;;;;;6.22;0.70;;;;;;;;;;5007973;28;20038;-59
2021/06/22 14:34:24;;;;;;;4.22;0.80;;;;;;;;;;5005481;28;20053;-60
2021/06/22 14:36:51;;;;;;;7.30;0.50;;;;;;;;;;5007165;28;20176;-60
2021/06/22 14:39:18;;;;;;;6.45;0.85;;;;;;;;;;5019250;28;20096;-60
2021/06/22 14:41:45;;;;;;;7.90;1.15;;;;;;;;;;5008179;28;20108;-59
2021/06/22 14:44:11;;;;;;;8.50;0.95;;;;;;;;;;5009781;28;20037;-56
2021/06/22 14:46:38;;;;;;;7.10;0.60;;;;;;;;;;5008654;28;20069;-59
2021/06/22 14:49:05;;;;;;;4.47;0.70;;;;;;;;;;5010508;28;20031;-59